Accueil
METAR-TAF:

METAR-TAF

Aéroports :

Base aérienne de Sigonella

Sigonella, Italie

latitude: 37-24N, longitude: 014-55E, altitude: 22 m

Observation

Le bulletin a été fait il y a 54 minutes, à 23:55 UTC
Vent 7 kt de ouest/nord-ouest
Température 6°C
Humidité 87%
Pression 1018 hPa
Visibilité 10 km ou plus
Quelques nuages à une hauteur de 8000 ft

METAR: LICZ 272355Z 29007KT 9999 FEW080 06/04 Q1018 RMK SCT VIS MIN 9999 WIND THR28 29007KT WIND THR10 31005KT A3008 BLU

Heure: 01:49 (00:49 UTC)

Prévision

Le bulletin a été fait il y a 1 heure et 49 minutes, à 23:00 UTC
Prévision valable du 28 à 00 UTC au 28 à 24 UTC
Vent 5 kt de ouest
Visibilité 10 km ou plus
Quelques nuages à une hauteur de 3000 ft
Temporairement
du 28 à 09 UTC au 28 à 18 UTC
Vent 19 kt de ouest/nord-ouest avec des rafales jusqu'à 35 kt

TAF: LICZ 272300Z 2800/2824 27005KT 9999 FEW030 TEMPO 2809/2818 30019G35KT

Observations et prévisions météorologiques de plus de 4000 aéroports (messages METAR et TAF).

Les stations disponibles sont représentées par des disques jaunes et rouges sur la carte.

Passer la souris dessus pour voir le nom de la station.

Cliquer dessus pour voir les observations et prévisions météorologiques.

Pour changer de carte: cliquez sur les boutons verts avec une croix noire pour zoomer, sur le bouton vert avec un tiret pour effectuer un zoom arrière, ou sur les flèches vertes pour les cartes adjacentes.


METAR-TAF: